Portada
METAR-TAF:

METAR-TAF

Aeroports :

Valcartier, Quebec, Canadà

latitud: 46-54N, longitud: 071-30W, altitud: 168 m

Observació

L'informe es va fer fa 59 minuts, a les 19:00 UTC
Vent 9 kt del Oest, variant entre Sud-Oest i Oest/Nord-Oest
Temperatura 15°C
Humitat 72%
Pressió 1015 hPa
Visibilitat: 14.5 km
Cel cobert a una alçada de 3300 ft
Cel cobert a una alçada de 8600 ft

METAR: CYOY 151900Z AUTO 26009KT 230V290 9SM OVC033 OVC086 15/10 A2997 RMK SLP152

Hora: 15:59 (19:59 UTC)


TAF: manca

Observacions i pronòstics meteorològics de més de 4000 aeroports (METAR i TAF).

Les estacions disponibles són els punts grocs i vermells al mapa.

Posi el ratolí al punt desitjat per veure el nom de l'estació.

Feu clic per veure les observacions i els pronòstics meteorològics.

Per canviar el mapa: feu clic els botons verds amb una creu de color negre per apropar; al botó verd amb un guió per allunyar la imatge; o en les fletxes verdes per a mapes adjacents.


METAR-TAF: